Nearby METAR Reports

 

ENCN - Kristiansand/Kje, Norway
Distance from station: N 17km
Oppdatert: 21/09/2020 15:20
Hovedsaklig skyet
Hovedsaklig skyet
 Vind fra VSV
Vind: VSV 26 km/h
Temperatur: 15°C
Duggpunkt: 10°C
Fuktighet: 72%
Barometer: 1013 hPa
Clouds: Hovedsaklig skyet
Visibility: 10 km
Cloud details: Hovedsaklig skyet 701 m
2020/09/21 13:20 ENCN 211320Z 25014KT 9999 BKN023 15/10 Q1013
EKSN - Sindal Airport, Denmark
Distance from station: ØSØ 145km
Oppdatert: 21/09/2020 14:50
Hovedsaklig skyet
Hovedsaklig skyet
 Vind fra VSV
Vind: VSV 31 km/h
Temperatur: 14°C
Duggpunkt: 12°C
Fuktighet: 88%
Barometer: 1016 hPa
Clouds: Hovedsaklig skyet
Visibility: 10 km
Cloud details: Delvis skyet 335 m
Hovedsaklig skyet 488 m
2020/09/21 12:50 EKSN 211250Z 25017KT 9999 SCT011 BKN016 14/12 Q1016
 
EKYT - Alborg, Denmark
Distance from station: SØ 153km
Oppdatert: 21/09/2020 15:20
Overskyet
Overskyet
 Vind fra VSV
Vind: VSV 22 km/h
Temperatur: 16°C
Duggpunkt: 12°C
Fuktighet: 77%
Barometer: 1016 hPa
Clouds: Overskyet
Visibility: 10 km
Cloud details: Few Clouds 518 m
Overskyet 610 m
2020/09/21 13:20 EKYT 211320Z AUTO 25012KT 9999 FEW017/// OVC020/// 16/12 Q1016
ENSN - Skien/Geiterygge, Norway
Distance from station: NØ 153km
Oppdatert: 09/11/2015 09:50
NOT Current
Klart
Klart
 Vind fra SSV
Vind: SSV 19 km/h, Vindkast: 41 km/h
Temperatur: 7°C
Wind Chill: 4°C
Duggpunkt: 3°C
Fuktighet: 76%
Barometer: 1000 hPa
Oversikt: Klart
Visibility: greater than 10 km
2015/11/09 08:50 ENSN 090850Z 20010G22KT 150V240 CAVOK 07/03 Q1000
 
ENZV - Stavanger/Sola(A, Norway
Distance from station: NV 166km
Oppdatert: 21/09/2020 15:20
Hovedsaklig skyet
Hovedsaklig skyet
 Vind fra S
Vind: S 19 km/h
Temperatur: 14°C
Duggpunkt: 13°C
Fuktighet: 94%
Barometer: 1013 hPa
Clouds: Hovedsaklig skyet
Visibility: 10 km
Cloud details: Delvis skyet 213 m
Hovedsaklig skyet 823 m
2020/09/21 13:20 ENZV 211320Z 19010KT 9999 SCT007 BKN027 14/13 Q1013 TEMPO BKN008
ENNO - Notodden, Norway
Distance from station: NNØ 182km
Oppdatert: 21/09/2020 14:50
Klart
Klart
 Vind fra NV
Vind: NV 6 km/h
Temperatur: 21°C
Duggpunkt: 9°C
Fuktighet: 46%
Barometer: 1009 hPa
Oversikt: Klart
Visibility: greater than 10 km
2020/09/21 12:50 ENNO 211250Z 32003KT 240V030 CAVOK 21/09 Q1009
 
ENTO - Torp (civ/Nor-Af, Norway
Distance from station: NØ 183km
Oppdatert: 21/09/2020 15:20
Klart
Klart
 Vind fra SSV
Vind: SSV 24 km/h
Temperatur: 17°C
Duggpunkt: 12°C
Fuktighet: 73%
Barometer: 1010 hPa
Oversikt: Klart
Visibility: greater than 10 km
2020/09/21 13:20 ENTO 211320Z 20013KT 150V220 CAVOK 17/12 Q1010 NOSIG
EKKA - Karup (dan-Afb), Denmark
Distance from station: SSØ 209km
Oppdatert: 21/09/2020 15:20
Klart
Klart
 Vind fra VSV
Vind: VSV 13 km/h
Temperatur: 18°C
Duggpunkt: 11°C
Fuktighet: 64%
Barometer: 1016 hPa
Clouds: Klart
Visibility: 10 km
2020/09/21 13:20 EKKA 211320Z AUTO 24007KT 200V270 9999 NCD 18/11 Q1016 NOSIG
 
ENHD - Haugesund/Karmoy, Norway
Distance from station: NV 216km
Oppdatert: 21/09/2020 15:20
Hovedsaklig skyet
Hovedsaklig skyet
 Vind fra SV
Vind: SV 26 km/h
Temperatur: 14°C
Duggpunkt: 10°C
Fuktighet: 77%
Barometer: 1012 hPa
Clouds: Hovedsaklig skyet
Visibility: 10 km
Cloud details: Delvis skyet 549 m
Hovedsaklig skyet 732 m
2020/09/21 13:20 ENHD 211320Z 22014KT 9999 SCT018 BKN024 14/10 Q1012
ENRY - Rygge (nor-Afb), Norway
Distance from station: NØ 216km
Oppdatert: 21/09/2020 15:20
Few Clouds
Few Clouds
 Vind fra S
Vind: S 30 km/h
Temperatur: 16°C
Duggpunkt: 12°C
Fuktighet: 77%
Barometer: 1010 hPa
Clouds: Few Clouds
Visibility: 10 km
Cloud details: Few Clouds 366 m
2020/09/21 13:20 ENRY 211320Z 18016KT 9999 FEW012 16/12 Q1010 TEMPO 19016G26KT
 
ESGP - Goteborg/Save (a, Sweden
Distance from station: Ø 230km
Oppdatert: 02/01/2017 11:20
NOT Current
Klart
Klart
 Vind fra calm
Vind: Stille
Temperatur: -2°C
Duggpunkt: -4°C
Fuktighet: 86%
Barometer: 1012 hPa
Clouds: Klart
Visibility: 10 km
2017/01/02 10:20 ESGP 021020Z AUTO 00000KT 9999 NCD M02/M04 Q1012
EKVJ - Stauning Airport, Denmark
Distance from station: S 233km
Oppdatert: 21/09/2020 14:50
Delvis skyet
Delvis skyet
 Vind fra VSV
Vind: VSV 15 km/h
Temperatur: 17°C
Duggpunkt: 15°C
Fuktighet: 88%
Barometer: 1017 hPa
Clouds: Delvis skyet
Visibility: 10 km
Cloud details: Few Clouds 518 m
Delvis skyet 7620 m
2020/09/21 12:50 EKVJ 211250Z 24008KT 9999 FEW017 SCT250 17/15 Q1017
 
ENSO - Stord/Soerstokke, Norway
Distance from station: NV 246km
Oppdatert: 21/09/2020 14:20
NOT Current
Hovedsaklig skyet
Hovedsaklig skyet
 Vind fra S
Vind: S 17 km/h
Temperatur: 14°C
Duggpunkt: 12°C
Fuktighet: 88%
Barometer: 1012 hPa
Clouds: Hovedsaklig skyet
Visibility: 10 km
Cloud details: Few Clouds 274 m
Delvis skyet 457 m
Hovedsaklig skyet 914 m
2020/09/21 12:20 ENSO 211220Z 19009KT 140V250 9999 FEW009 SCT015TCU BKN030 14/12 Q1012
EKAH - Tirstrup (civ/Mi, Denmark
Distance from station: SØ 252km
Oppdatert: 21/09/2020 15:20
Klart
Klart
 Vind fra VSV
Vind: VSV 9 km/h
Temperatur: 17°C
Duggpunkt: 12°C
Fuktighet: 73%
Barometer: 1017 hPa
Clouds: Klart
Visibility: 10 km
2020/09/21 13:20 EKAH 211320Z AUTO 25005KT 200V310 9999NDV NCD 17/12 Q1017
 
ESGT - Trollhattan (pvt, Sweden
Distance from station: Ø 255km
Oppdatert: 21/09/2020 15:20
Hovedsaklig skyet
Hovedsaklig skyet
 Vind fra SSV
Vind: SSV 24 km/h
Temperatur: 14°C
Duggpunkt: 11°C
Fuktighet: 82%
Barometer: 1014 hPa
Clouds: Hovedsaklig skyet
Visibility: 10 km
Cloud details: Hovedsaklig skyet 427 m
2020/09/21 13:20 ESGT 211320Z 20013KT 9999 BKN014 14/11 Q1014
ESGG - Goteborg/Landvet, Sweden
Distance from station: Ø 257km
Oppdatert: 21/09/2020 15:20
Overskyet
Overskyet
 Vind fra SSV
Vind: SSV 24 km/h
Temperatur: 12°C
Duggpunkt: 10°C
Fuktighet: 88%
Barometer: 1016 hPa
Clouds: Overskyet
Visibility: 10 km
Cloud details: Hovedsaklig skyet 213 m
Overskyet 305 m
2020/09/21 13:20 ESGG 211320Z 21013KT 9999 BKN007 OVC010 12/10 Q1016
 
EKBI - Billund Airport, Denmark
Distance from station: SSØ 269km
Oppdatert: 21/09/2020 15:20
Klart
Klart
 Vind fra VSV
Vind: VSV 9 km/h
Temperatur: 18°C
Duggpunkt: 11°C
Fuktighet: 64%
Barometer: 1017 hPa
Clouds: Klart
Visibility: 10 km
2020/09/21 13:20 EKBI 211320Z AUTO 24005KT 210V280 9999 NCD 18/11 Q1017
EKHN - Horns Rev B Heli, Denmark
Distance from station: S 274km
Oppdatert: 09/08/2016 14:20
NOT Current
Few Clouds
Few Clouds
 Vind fra VNV
Vind: VNV 50 km/h, Vindkast: 72 km/h
Temperatur: 14°C
Duggpunkt: 10°C
Fuktighet: 77%
Barometer: 1018 hPa
Clouds: Few Clouds
Visibility: 10 km
Cloud details: Few Clouds 1158 m
Few Clouds 2438 m
2016/08/09 12:20 EKHN 091220Z AUTO 29027G39KT 270V340 9999NDV FEW038/// FEW080/// 14/10 Q1018
 
ESIB - Satenas (swe-Afb, Sweden
Distance from station: Ø 277km
Oppdatert: 21/09/2020 15:20
Overskyet
Overskyet
 Vind fra SV
Vind: SV 35 km/h
Temperatur: 15°C
Duggpunkt: 13°C
Fuktighet: 88%
Barometer: 1013 hPa
Clouds: Overskyet
Visibility: 10 km
Cloud details: Overskyet 610 m
2020/09/21 13:20 ESIB 211320Z AUTO 22019KT 9999 OVC020/// 15/13 Q1013
EKHR - Horns Rev B Heli, Denmark
Distance from station: S 282km
Oppdatert: 04/10/2016 06:20
NOT Current
Klart
Klart
 Vind fra Ø
Vind: Ø 4 km/h
Temperatur: 11°C
Duggpunkt: -49°C
Fuktighet: 0%
Barometer: 1038 hPa
Clouds: Klart
Visibility: 10 km
2016/10/04 04:20 EKHR 040420Z AUTO 08002KT 9999NDV NCD 11/M49 Q1038